sensor_id;sensor_type;location;lat;lon;timestamp;pressure;altitude;pressure_sealevel;temperature;humidity
64362;BME280;50685;53.346;-6.296;2023-09-19T00:10:29;99998.00;;;11.93;100.00
64362;BME280;50685;53.346;-6.296;2023-09-19T00:34:42;100006.25;;;11.83;100.00
64362;BME280;50685;53.346;-6.296;2023-09-19T04:42:20;99221.34;;;13.45;100.00
64362;BME280;50685;53.346;-6.296;2023-09-19T04:47:47;99199.72;;;13.51;100.00
64362;BME280;50685;53.346;-6.296;2023-09-19T04:50:15;99222.59;;;13.55;100.00
64362;BME280;50685;53.346;-6.296;2023-09-19T04:52:48;99205.59;;;13.58;100.00
64362;BME280;50685;53.346;-6.296;2023-09-19T04:55:20;99201.16;;;13.58;100.00
64362;BME280;50685;53.346;-6.296;2023-09-19T04:58:02;99206.25;;;13.63;100.00
64362;BME280;50685;53.346;-6.296;2023-09-19T05:00:35;99192.66;;;13.68;100.00
64362;BME280;50685;53.346;-6.296;2023-09-19T05:03:03;99194.00;;;13.76;100.00
64362;BME280;50685;53.346;-6.296;2023-09-19T05:05:34;99156.22;;;13.86;100.00
64362;BME280;50685;53.346;-6.296;2023-09-19T05:08:12;99188.91;;;13.89;100.00
64362;BME280;50685;53.346;-6.296;2023-09-19T05:19:24;99160.84;;;14.16;100.00
64362;BME280;50685;53.346;-6.296;2023-09-19T05:31:25;99141.00;;;14.37;100.00
64362;BME280;50685;53.346;-6.296;2023-09-19T05:37:22;99144.72;;;14.51;100.00
64362;BME280;50685;53.346;-6.296;2023-09-19T05:39:51;99145.22;;;14.57;100.00
64362;BME280;50685;53.346;-6.296;2023-09-19T05:48:28;99129.25;;;14.73;100.00
64362;BME280;50685;53.346;-6.296;2023-09-19T05:54:21;99114.59;;;14.81;100.00
64362;BME280;50685;53.346;-6.296;2023-09-19T06:03:30;99117.84;;;14.86;100.00
64362;BME280;50685;53.346;-6.296;2023-09-19T06:24:00;99107.06;;;15.03;100.00
64362;BME280;50685;53.346;-6.296;2023-09-19T06:26:34;99108.44;;;15.10;100.00
64362;BME280;50685;53.346;-6.296;2023-09-19T06:34:56;99082.00;;;15.36;100.00
64362;BME280;50685;53.346;-6.296;2023-09-19T06:40:28;99096.50;;;15.47;100.00
64362;BME280;50685;53.346;-6.296;2023-09-19T07:17:47;99123.34;;;15.60;100.00
64362;BME280;50685;53.346;-6.296;2023-09-19T07:35:29;99142.22;;;15.87;100.00
64362;BME280;50685;53.346;-6.296;2023-09-19T07:38:08;99141.06;;;15.91;100.00
64362;BME280;50685;53.346;-6.296;2023-09-19T07:40:39;99131.13;;;15.93;100.00
64362;BME280;50685;53.346;-6.296;2023-09-19T07:43:04;99139.91;;;15.95;100.00
64362;BME280;50685;53.346;-6.296;2023-09-19T07:45:40;99163.00;;;15.96;100.00
64362;BME280;50685;53.346;-6.296;2023-09-19T07:48:09;99158.53;;;15.97;100.00
64362;BME280;50685;53.346;-6.296;2023-09-19T07:56:31;99170.22;;;16.10;100.00
64362;BME280;50685;53.346;-6.296;2023-09-19T08:02:08;99156.34;;;16.18;100.00
64362;BME280;50685;53.346;-6.296;2023-09-19T08:07:49;99182.16;;;16.33;100.00
64362;BME280;50685;53.346;-6.296;2023-09-19T08:10:14;99166.84;;;16.35;100.00
64362;BME280;50685;53.346;-6.296;2023-09-19T08:13:05;99181.38;;;16.46;100.00
64362;BME280;50685;53.346;-6.296;2023-09-19T08:15:42;99176.59;;;16.51;100.00
64362;BME280;50685;53.346;-6.296;2023-09-19T08:18:15;99177.97;;;16.57;100.00
64362;BME280;50685;53.346;-6.296;2023-09-19T08:20:49;99161.75;;;16.60;100.00
64362;BME280;50685;53.346;-6.296;2023-09-19T08:23:29;99172.16;;;16.64;100.00
64362;BME280;50685;53.346;-6.296;2023-09-19T08:25:59;99169.09;;;16.70;100.00
64362;BME280;50685;53.346;-6.296;2023-09-19T08:28:34;99174.81;;;16.79;100.00
64362;BME280;50685;53.346;-6.296;2023-09-19T08:31:06;99166.16;;;16.88;100.00
64362;BME280;50685;53.346;-6.296;2023-09-19T08:36:19;99172.84;;;17.10;100.00
64362;BME280;50685;53.346;-6.296;2023-09-19T08:38:45;99169.22;;;17.24;100.00
64362;BME280;50685;53.346;-6.296;2023-09-19T08:41:14;99147.19;;;17.46;100.00
64362;BME280;50685;53.346;-6.296;2023-09-19T08:43:44;99146.25;;;17.60;100.00
64362;BME280;50685;53.346;-6.296;2023-09-19T08:46:20;99158.38;;;17.65;100.00
64362;BME280;50685;53.346;-6.296;2023-09-19T08:50:17;99165.91;;;17.86;100.00
64362;BME280;50685;53.346;-6.296;2023-09-19T08:52:23;99188.47;;;18.09;100.00
64362;BME280;50685;53.346;-6.296;2023-09-19T08:54:58;99168.28;;;18.29;100.00
64362;BME280;50685;53.346;-6.296;2023-09-19T09:00:29;99182.13;;;18.36;100.00
64362;BME280;50685;53.346;-6.296;2023-09-19T09:06:21;99188.25;;;18.12;100.00
64362;BME280;50685;53.346;-6.296;2023-09-19T09:18:03;99233.97;;;17.58;100.00
64362;BME280;50685;53.346;-6.296;2023-09-19T09:23:33;99258.50;;;17.52;100.00
64362;BME280;50685;53.346;-6.296;2023-09-19T09:29:13;99265.84;;;17.35;100.00
64362;BME280;50685;53.346;-6.296;2023-09-19T09:35:07;99259.66;;;17.20;100.00
64362;BME280;50685;53.346;-6.296;2023-09-19T09:37:38;99265.41;;;17.14;100.00
64362;BME280;50685;53.346;-6.296;2023-09-19T09:40:15;99266.47;;;17.11;100.00
64362;BME280;50685;53.346;-6.296;2023-09-19T09:43:03;99269.94;;;17.13;100.00
64362;BME280;50685;53.346;-6.296;2023-09-19T09:45:45;99268.75;;;17.17;100.00
64362;BME280;50685;53.346;-6.296;2023-09-19T09:48:13;99273.63;;;17.25;100.00
64362;BME280;50685;53.346;-6.296;2023-09-19T09:50:46;99258.84;;;17.32;100.00
64362;BME280;50685;53.346;-6.296;2023-09-19T09:53:28;99269.94;;;17.41;100.00
64362;BME280;50685;53.346;-6.296;2023-09-19T09:56:14;99271.56;;;17.43;100.00
64362;BME280;50685;53.346;-6.296;2023-09-19T09:58:51;99246.91;;;17.51;100.00
64362;BME280;50685;53.346;-6.296;2023-09-19T10:01:49;99276.56;;;17.62;100.00
64362;BME280;50685;53.346;-6.296;2023-09-19T10:07:42;99283.53;;;17.65;100.00
64362;BME280;50685;53.346;-6.296;2023-09-19T10:13:36;99272.25;;;17.60;100.00
64362;BME280;50685;53.346;-6.296;2023-09-19T10:16:06;99278.66;;;17.57;100.00
64362;BME280;50685;53.346;-6.296;2023-09-19T10:18:38;99266.22;;;17.56;100.00
64362;BME280;50685;53.346;-6.296;2023-09-19T10:21:06;99287.03;;;17.53;100.00
64362;BME280;50685;53.346;-6.296;2023-09-19T10:26:36;99289.22;;;17.60;100.00
64362;BME280;50685;53.346;-6.296;2023-09-19T10:29:02;99284.50;;;17.64;100.00
64362;BME280;50685;53.346;-6.296;2023-09-19T10:31:32;99298.75;;;17.64;100.00
64362;BME280;50685;53.346;-6.296;2023-09-19T10:37:03;99282.78;;;17.76;100.00
64362;BME280;50685;53.346;-6.296;2023-09-19T10:39:31;99288.63;;;17.82;100.00
64362;BME280;50685;53.346;-6.296;2023-09-19T10:41:57;99253.13;;;17.92;100.00
64362;BME280;50685;53.346;-6.296;2023-09-19T10:44:28;99268.31;;;18.06;100.00
64362;BME280;50685;53.346;-6.296;2023-09-19T10:46:56;99275.63;;;18.17;100.00
64362;BME280;50685;53.346;-6.296;2023-09-19T10:49:34;99262.75;;;18.35;100.00
64362;BME280;50685;53.346;-6.296;2023-09-19T10:52:08;99271.78;;;18.46;100.00
64362;BME280;50685;53.346;-6.296;2023-09-19T10:54:38;99287.75;;;18.48;100.00
64362;BME280;50685;53.346;-6.296;2023-09-19T10:57:04;99297.44;;;18.38;100.00
64362;BME280;50685;53.346;-6.296;2023-09-19T10:59:34;99294.97;;;18.22;100.00
64362;BME280;50685;53.346;-6.296;2023-09-19T11:02:00;99294.38;;;18.04;100.00
64362;BME280;50685;53.346;-6.296;2023-09-19T11:04:43;99319.22;;;17.93;100.00
64362;BME280;50685;53.346;-6.296;2023-09-19T11:07:11;99306.94;;;17.76;100.00
64362;BME280;50685;53.346;-6.296;2023-09-19T11:09:44;99297.38;;;17.72;100.00
64362;BME280;50685;53.346;-6.296;2023-09-19T11:12:11;99309.53;;;17.77;100.00
64362;BME280;50685;53.346;-6.296;2023-09-19T11:14:40;99285.84;;;17.84;100.00
64362;BME280;50685;53.346;-6.296;2023-09-19T11:22:23;99294.03;;;17.95;100.00
64362;BME280;50685;53.346;-6.296;2023-09-19T11:24:51;99257.34;;;17.96;100.00
64362;BME280;50685;53.346;-6.296;2023-09-19T11:27:16;99275.25;;;17.95;100.00
64362;BME280;50685;53.346;-6.296;2023-09-19T11:29:43;99271.41;;;18.00;100.00
64362;BME280;50685;53.346;-6.296;2023-09-19T11:32:09;99273.03;;;18.02;100.00
64362;BME280;50685;53.346;-6.296;2023-09-19T11:34:42;99287.84;;;18.08;100.00
64362;BME280;50685;53.346;-6.296;2023-09-19T11:37:59;99294.06;;;18.21;100.00
64362;BME280;50685;53.346;-6.296;2023-09-19T11:40:08;99270.78;;;18.35;100.00
64362;BME280;50685;53.346;-6.296;2023-09-19T11:42:47;99279.19;;;18.43;100.00
64362;BME280;50685;53.346;-6.296;2023-09-19T11:48:03;99276.59;;;18.67;100.00
64362;BME280;50685;53.346;-6.296;2023-09-19T11:53:35;99289.56;;;18.86;100.00
64362;BME280;50685;53.346;-6.296;2023-09-19T11:56:04;99255.50;;;18.87;100.00
64362;BME280;50685;53.346;-6.296;2023-09-19T11:58:40;99241.19;;;18.86;100.00
64362;BME280;50685;53.346;-6.296;2023-09-19T12:01:13;99251.75;;;18.89;100.00
64362;BME280;50685;53.346;-6.296;2023-09-19T12:03:41;99260.13;;;18.85;100.00
64362;BME280;50685;53.346;-6.296;2023-09-19T12:06:10;99243.69;;;18.89;100.00
64362;BME280;50685;53.346;-6.296;2023-09-19T12:08:49;99260.59;;;18.91;100.00
64362;BME280;50685;53.346;-6.296;2023-09-19T12:11:21;99261.94;;;18.97;100.00
64362;BME280;50685;53.346;-6.296;2023-09-19T12:14:02;99255.59;;;18.98;100.00
64362;BME280;50685;53.346;-6.296;2023-09-19T12:16:39;99233.78;;;19.03;100.00
64362;BME280;50685;53.346;-6.296;2023-09-19T12:19:20;99243.97;;;19.10;100.00
64362;BME280;50685;53.346;-6.296;2023-09-19T12:31:08;99282.22;;;19.14;100.00
64362;BME280;50685;53.346;-6.296;2023-09-19T12:40:12;99285.06;;;18.87;100.00
64362;BME280;50685;53.346;-6.296;2023-09-19T12:42:56;99294.63;;;18.78;100.00
64362;BME280;50685;53.346;-6.296;2023-09-19T12:48:25;99310.00;;;18.76;100.00
64362;BME280;50685;53.346;-6.296;2023-09-19T12:51:12;99305.91;;;18.83;100.00
64362;BME280;50685;53.346;-6.296;2023-09-19T13:03:27;99306.03;;;18.82;100.00
64362;BME280;50685;53.346;-6.296;2023-09-19T13:06:02;99304.19;;;18.82;100.00
64362;BME280;50685;53.346;-6.296;2023-09-19T13:11:35;99315.03;;;18.68;100.00
64362;BME280;50685;53.346;-6.296;2023-09-19T13:17:11;99306.44;;;18.88;100.00
64362;BME280;50685;53.346;-6.296;2023-09-19T13:19:46;99325.78;;;18.93;100.00
64362;BME280;50685;53.346;-6.296;2023-09-19T13:24:58;99316.75;;;18.94;100.00
64362;BME280;50685;53.346;-6.296;2023-09-19T13:27:30;99317.63;;;18.95;100.00
64362;BME280;50685;53.346;-6.296;2023-09-19T13:29:55;99318.03;;;18.89;100.00
64362;BME280;50685;53.346;-6.296;2023-09-19T13:32:21;99312.69;;;19.02;100.00
64362;BME280;50685;53.346;-6.296;2023-09-19T13:34:50;99315.31;;;19.15;100.00
64362;BME280;50685;53.346;-6.296;2023-09-19T13:37:16;99316.94;;;19.17;100.00
64362;BME280;50685;53.346;-6.296;2023-09-19T13:39:43;99310.75;;;19.04;100.00
64362;BME280;50685;53.346;-6.296;2023-09-19T13:42:12;99311.47;;;19.06;100.00
64362;BME280;50685;53.346;-6.296;2023-09-19T13:44:39;99325.94;;;19.29;100.00
64362;BME280;50685;53.346;-6.296;2023-09-19T13:47:06;99292.03;;;19.64;100.00
64362;BME280;50685;53.346;-6.296;2023-09-19T13:49:34;99301.53;;;20.05;100.00
64362;BME280;50685;53.346;-6.296;2023-09-19T13:52:03;99270.28;;;20.38;100.00
64362;BME280;50685;53.346;-6.296;2023-09-19T13:54:30;99291.13;;;20.59;100.00
64362;BME280;50685;53.346;-6.296;2023-09-19T13:56:55;99300.66;;;20.63;100.00
64362;BME280;50685;53.346;-6.296;2023-09-19T13:59:44;99297.91;;;20.40;100.00
64362;BME280;50685;53.346;-6.296;2023-09-19T14:02:10;99287.31;;;20.03;100.00
64362;BME280;50685;53.346;-6.296;2023-09-19T14:04:38;99289.16;;;20.02;100.00
64362;BME280;50685;53.346;-6.296;2023-09-19T14:07:06;99298.00;;;20.16;100.00
64362;BME280;50685;53.346;-6.296;2023-09-19T14:09:32;99294.38;;;19.93;100.00
64362;BME280;50685;53.346;-6.296;2023-09-19T14:12:00;99289.13;;;19.67;100.00
64362;BME280;50685;53.346;-6.296;2023-09-19T14:14:26;99302.53;;;19.55;100.00
64362;BME280;50685;53.346;-6.296;2023-09-19T14:16:56;99301.91;;;19.39;100.00
64362;BME280;50685;53.346;-6.296;2023-09-19T14:19:24;99291.09;;;19.27;100.00
64362;BME280;50685;53.346;-6.296;2023-09-19T14:21:52;99277.78;;;19.26;100.00
64362;BME280;50685;53.346;-6.296;2023-09-19T14:24:25;99279.03;;;19.57;100.00
64362;BME280;50685;53.346;-6.296;2023-09-19T14:26:50;99276.56;;;20.03;100.00
64362;BME280;50685;53.346;-6.296;2023-09-19T14:29:19;99263.41;;;20.34;100.00
64362;BME280;50685;53.346;-6.296;2023-09-19T14:31:45;99261.00;;;20.65;100.00
64362;BME280;50685;53.346;-6.296;2023-09-19T14:34:10;99242.91;;;20.78;100.00
64362;BME280;50685;53.346;-6.296;2023-09-19T14:39:01;99237.16;;;21.27;100.00
64362;BME280;50685;53.346;-6.296;2023-09-19T14:41:29;99251.72;;;21.35;100.00
64362;BME280;50685;53.346;-6.296;2023-09-19T14:43:56;99254.69;;;21.32;100.00
64362;BME280;50685;53.346;-6.296;2023-09-19T14:46:30;99251.63;;;21.26;100.00
64362;BME280;50685;53.346;-6.296;2023-09-19T14:48:58;99241.63;;;21.16;100.00
64362;BME280;50685;53.346;-6.296;2023-09-19T15:05:49;99237.44;;;20.10;100.00
64362;BME280;50685;53.346;-6.296;2023-09-19T15:23:01;99250.50;;;20.03;100.00
64362;BME280;50685;53.346;-6.296;2023-09-19T15:25:29;99232.91;;;20.11;100.00
64362;BME280;50685;53.346;-6.296;2023-09-19T15:28:01;99242.66;;;20.00;100.00
64362;BME280;50685;53.346;-6.296;2023-09-19T15:30:39;99219.75;;;19.95;100.00
64362;BME280;50685;53.346;-6.296;2023-09-19T15:33:04;99216.97;;;19.85;100.00
64362;BME280;50685;53.346;-6.296;2023-09-19T15:35:29;99209.38;;;19.90;100.00
64362;BME280;50685;53.346;-6.296;2023-09-19T15:37:55;99197.53;;;20.15;100.00
64362;BME280;50685;53.346;-6.296;2023-09-19T15:52:37;99179.91;;;20.79;100.00
64362;BME280;50685;53.346;-6.296;2023-09-19T16:14:56;99161.34;;;20.31;100.00
64362;BME280;50685;53.346;-6.296;2023-09-19T16:17:21;99152.25;;;20.20;100.00
64362;BME280;50685;53.346;-6.296;2023-09-19T16:19:48;99153.75;;;20.13;100.00
64362;BME280;50685;53.346;-6.296;2023-09-19T16:22:33;99156.31;;;20.03;100.00
64362;BME280;50685;53.346;-6.296;2023-09-19T16:24:59;99161.81;;;20.02;100.00
64362;BME280;50685;53.346;-6.296;2023-09-19T16:27:35;99155.56;;;20.01;100.00
64362;BME280;50685;53.346;-6.296;2023-09-19T16:30:01;99172.56;;;20.02;100.00
64362;BME280;50685;53.346;-6.296;2023-09-19T16:32:27;99161.22;;;20.10;100.00
64362;BME280;50685;53.346;-6.296;2023-09-19T16:34:53;99165.63;;;20.11;100.00
64362;BME280;50685;53.346;-6.296;2023-09-19T16:37:18;99175.03;;;20.05;100.00
64362;BME280;50685;53.346;-6.296;2023-09-19T16:39:50;99166.34;;;20.01;100.00
64362;BME280;50685;53.346;-6.296;2023-09-19T16:45:40;99170.78;;;19.78;100.00
64362;BME280;50685;53.346;-6.296;2023-09-19T16:48:07;99161.09;;;19.64;100.00
64362;BME280;50685;53.346;-6.296;2023-09-19T16:50:50;99170.75;;;19.55;100.00
64362;BME280;50685;53.346;-6.296;2023-09-19T17:02:47;99172.50;;;19.32;100.00
64362;BME280;50685;53.346;-6.296;2023-09-19T17:05:38;99166.69;;;19.25;100.00
64362;BME280;50685;53.346;-6.296;2023-09-19T17:14:39;99152.75;;;19.20;100.00
64362;BME280;50685;53.346;-6.296;2023-09-19T17:17:08;99147.09;;;19.12;100.00
64362;BME280;50685;53.346;-6.296;2023-09-19T17:19:34;99146.13;;;19.13;100.00
64362;BME280;50685;53.346;-6.296;2023-09-19T17:22:00;99149.78;;;19.12;100.00
64362;BME280;50685;53.346;-6.296;2023-09-19T17:24:29;99137.56;;;19.08;100.00
64362;BME280;50685;53.346;-6.296;2023-09-19T17:27:00;99130.25;;;19.10;100.00
64362;BME280;50685;53.346;-6.296;2023-09-19T17:32:22;99107.38;;;19.04;100.00
64362;BME280;50685;53.346;-6.296;2023-09-19T17:37:53;99121.16;;;19.00;100.00
64362;BME280;50685;53.346;-6.296;2023-09-19T17:40:19;99111.50;;;18.97;100.00
64362;BME280;50685;53.346;-6.296;2023-09-19T17:42:44;99115.28;;;18.94;100.00
64362;BME280;50685;53.346;-6.296;2023-09-19T17:45:16;99104.19;;;18.86;100.00
64362;BME280;50685;53.346;-6.296;2023-09-19T17:47:52;99112.72;;;18.80;100.00
64362;BME280;50685;53.346;-6.296;2023-09-19T17:50:18;99122.44;;;18.70;100.00
64362;BME280;50685;53.346;-6.296;2023-09-19T17:52:43;99124.69;;;18.63;100.00
64362;BME280;50685;53.346;-6.296;2023-09-19T17:55:12;99112.81;;;18.54;100.00
64362;BME280;50685;53.346;-6.296;2023-09-19T17:57:46;99116.69;;;18.50;100.00
64362;BME280;50685;53.346;-6.296;2023-09-19T18:02:57;99114.66;;;18.41;100.00
64362;BME280;50685;53.346;-6.296;2023-09-19T18:06:05;99116.97;;;18.34;100.00
64362;BME280;50685;53.346;-6.296;2023-09-19T18:08:45;99115.34;;;18.32;100.00
64362;BME280;50685;53.346;-6.296;2023-09-19T18:11:16;99108.16;;;18.32;100.00
64362;BME280;50685;53.346;-6.296;2023-09-19T18:13:54;99106.66;;;18.28;100.00
64362;BME280;50685;53.346;-6.296;2023-09-19T18:16:23;99096.91;;;18.27;100.00
64362;BME280;50685;53.346;-6.296;2023-09-19T18:18:52;99099.38;;;18.30;100.00
64362;BME280;50685;53.346;-6.296;2023-09-19T18:21:21;99115.47;;;18.30;100.00
64362;BME280;50685;53.346;-6.296;2023-09-19T18:23:58;99133.72;;;18.25;100.00
64362;BME280;50685;53.346;-6.296;2023-09-19T18:26:28;99114.00;;;18.13;100.00
64362;BME280;50685;53.346;-6.296;2023-09-19T18:28:54;99116.03;;;18.09;100.00
64362;BME280;50685;53.346;-6.296;2023-09-19T18:31:23;99117.22;;;18.05;100.00
64362;BME280;50685;53.346;-6.296;2023-09-19T18:33:48;99118.41;;;18.01;100.00
64362;BME280;50685;53.346;-6.296;2023-09-19T18:36:14;99120.25;;;18.01;100.00
64362;BME280;50685;53.346;-6.296;2023-09-19T18:38:40;99100.47;;;18.02;100.00
64362;BME280;50685;53.346;-6.296;2023-09-19T18:41:15;99089.75;;;18.02;100.00
64362;BME280;50685;53.346;-6.296;2023-09-19T18:43:41;99087.81;;;18.04;100.00
64362;BME280;50685;53.346;-6.296;2023-09-19T18:46:09;99097.69;;;18.03;100.00
64362;BME280;50685;53.346;-6.296;2023-09-19T18:48:40;99104.16;;;18.01;100.00
64362;BME280;50685;53.346;-6.296;2023-09-19T18:51:14;99086.22;;;18.01;100.00
64362;BME280;50685;53.346;-6.296;2023-09-19T18:53:43;99100.81;;;17.97;100.00
64362;BME280;50685;53.346;-6.296;2023-09-19T18:56:13;99094.69;;;17.95;100.00
64362;BME280;50685;53.346;-6.296;2023-09-19T18:58:48;99093.84;;;17.94;100.00
64362;BME280;50685;53.346;-6.296;2023-09-19T19:01:37;99070.00;;;17.90;100.00
64362;BME280;50685;53.346;-6.296;2023-09-19T19:04:03;99073.75;;;17.87;100.00
64362;BME280;50685;53.346;-6.296;2023-09-19T19:06:31;99064.00;;;17.86;100.00
64362;BME280;50685;53.346;-6.296;2023-09-19T19:08:57;99063.13;;;17.86;100.00
64362;BME280;50685;53.346;-6.296;2023-09-19T19:11:23;99060.56;;;17.84;100.00
64362;BME280;50685;53.346;-6.296;2023-09-19T19:13:53;99054.44;;;17.82;100.00
64362;BME280;50685;53.346;-6.296;2023-09-19T19:16:18;99048.22;;;17.81;100.00
64362;BME280;50685;53.346;-6.296;2023-09-19T19:18:47;99067.84;;;17.82;100.00
64362;BME280;50685;53.346;-6.296;2023-09-19T19:21:13;99055.31;;;17.82;100.00
64362;BME280;50685;53.346;-6.296;2023-09-19T19:23:41;99049.81;;;17.84;100.00
64362;BME280;50685;53.346;-6.296;2023-09-19T19:26:07;99055.19;;;17.84;100.00
64362;BME280;50685;53.346;-6.296;2023-09-19T19:28:56;98981.81;;;17.85;100.00
64362;BME280;50685;53.346;-6.296;2023-09-19T19:31:21;99029.97;;;17.87;100.00
64362;BME280;50685;53.346;-6.296;2023-09-19T19:33:49;99021.28;;;17.83;100.00
64362;BME280;50685;53.346;-6.296;2023-09-19T19:36:21;99035.91;;;17.79;100.00
64362;BME280;50685;53.346;-6.296;2023-09-19T19:38:47;99022.59;;;17.77;100.00
64362;BME280;50685;53.346;-6.296;2023-09-19T19:41:22;99022.50;;;17.79;100.00
64362;BME280;50685;53.346;-6.296;2023-09-19T19:43:58;99033.22;;;17.79;100.00
64362;BME280;50685;53.346;-6.296;2023-09-19T19:46:24;99053.72;;;17.80;100.00
64362;BME280;50685;53.346;-6.296;2023-09-19T19:49:08;99052.75;;;17.81;100.00
64362;BME280;50685;53.346;-6.296;2023-09-19T19:51:34;99063.25;;;17.84;100.00
64362;BME280;50685;53.346;-6.296;2023-09-19T19:54:12;99055.94;;;17.86;100.00
64362;BME280;50685;53.346;-6.296;2023-09-19T19:56:38;99034.25;;;17.89;100.00
64362;BME280;50685;53.346;-6.296;2023-09-19T19:59:04;99032.66;;;17.87;100.00
64362;BME280;50685;53.346;-6.296;2023-09-19T20:01:32;99026.44;;;17.86;100.00
64362;BME280;50685;53.346;-6.296;2023-09-19T20:04:25;99020.44;;;17.82;100.00
64362;BME280;50685;53.346;-6.296;2023-09-19T20:06:53;99010.81;;;17.80;100.00
64362;BME280;50685;53.346;-6.296;2023-09-19T20:09:18;99002.75;;;17.80;100.00
64362;BME280;50685;53.346;-6.296;2023-09-19T20:11:45;98989.47;;;17.78;100.00
64362;BME280;50685;53.346;-6.296;2023-09-19T20:14:19;98982.47;;;17.76;100.00
64362;BME280;50685;53.346;-6.296;2023-09-19T20:16:47;98965.78;;;17.72;100.00
64362;BME280;50685;53.346;-6.296;2023-09-19T20:19:18;98975.75;;;17.70;100.00
64362;BME280;50685;53.346;-6.296;2023-09-19T20:21:45;98922.25;;;17.69;100.00
64362;BME280;50685;53.346;-6.296;2023-09-19T20:27:03;98920.53;;;17.67;100.00
64362;BME280;50685;53.346;-6.296;2023-09-19T20:32:40;98955.91;;;17.73;100.00
64362;BME280;50685;53.346;-6.296;2023-09-19T20:35:06;98956.09;;;17.70;100.00
64362;BME280;50685;53.346;-6.296;2023-09-19T20:37:32;98963.19;;;17.71;100.00
64362;BME280;50685;53.346;-6.296;2023-09-19T20:39:59;98969.50;;;17.70;100.00
64362;BME280;50685;53.346;-6.296;2023-09-19T20:42:25;98938.41;;;17.67;100.00
64362;BME280;50685;53.346;-6.296;2023-09-19T20:44:53;98950.22;;;17.64;100.00
64362;BME280;50685;53.346;-6.296;2023-09-19T20:47:20;98921.69;;;17.63;100.00
64362;BME280;50685;53.346;-6.296;2023-09-19T20:49:57;98936.94;;;17.63;100.00
64362;BME280;50685;53.346;-6.296;2023-09-19T20:52:23;98916.34;;;17.63;100.00
64362;BME280;50685;53.346;-6.296;2023-09-19T20:54:49;98924.38;;;17.63;100.00
64362;BME280;50685;53.346;-6.296;2023-09-19T20:57:14;98899.53;;;17.61;100.00
64362;BME280;50685;53.346;-6.296;2023-09-19T20:59:40;98905.97;;;17.59;100.00
64362;BME280;50685;53.346;-6.296;2023-09-19T21:02:07;98912.38;;;17.56;100.00
64362;BME280;50685;53.346;-6.296;2023-09-19T21:04:34;98923.34;;;17.53;100.00
64362;BME280;50685;53.346;-6.296;2023-09-19T21:06:59;98888.63;;;17.52;100.00
64362;BME280;50685;53.346;-6.296;2023-09-19T21:09:24;98918.09;;;17.52;100.00
64362;BME280;50685;53.346;-6.296;2023-09-19T21:11:55;98925.50;;;17.48;100.00
64362;BME280;50685;53.346;-6.296;2023-09-19T21:14:20;98912.41;;;17.43;100.00
64362;BME280;50685;53.346;-6.296;2023-09-19T21:19:33;98919.06;;;17.38;100.00
64362;BME280;50685;53.346;-6.296;2023-09-19T21:22:03;98884.22;;;17.38;100.00
64362;BME280;50685;53.346;-6.296;2023-09-19T21:24:28;98894.22;;;17.36;100.00
64362;BME280;50685;53.346;-6.296;2023-09-19T21:26:58;98900.53;;;17.34;100.00
64362;BME280;50685;53.346;-6.296;2023-09-19T21:29:25;98885.44;;;17.33;100.00
64362;BME280;50685;53.346;-6.296;2023-09-19T21:31:54;98849.84;;;17.31;100.00
64362;BME280;50685;53.346;-6.296;2023-09-19T21:34:19;98844.47;;;17.31;100.00
64362;BME280;50685;53.346;-6.296;2023-09-19T21:36:47;98824.00;;;17.30;100.00
64362;BME280;50685;53.346;-6.296;2023-09-19T21:39:15;98813.28;;;17.30;100.00
64362;BME280;50685;53.346;-6.296;2023-09-19T21:41:44;98820.47;;;17.30;100.00
64362;BME280;50685;53.346;-6.296;2023-09-19T21:44:09;98806.97;;;17.31;100.00
64362;BME280;50685;53.346;-6.296;2023-09-19T21:46:41;98788.34;;;17.30;100.00
64362;BME280;50685;53.346;-6.296;2023-09-19T21:49:10;98785.66;;;17.30;100.00
64362;BME280;50685;53.346;-6.296;2023-09-19T21:51:35;98773.97;;;17.31;100.00
64362;BME280;50685;53.346;-6.296;2023-09-19T21:54:01;98775.44;;;17.35;100.00
64362;BME280;50685;53.346;-6.296;2023-09-19T21:56:28;98749.53;;;17.36;100.00
64362;BME280;50685;53.346;-6.296;2023-09-19T21:58:53;98782.63;;;17.34;100.00
64362;BME280;50685;53.346;-6.296;2023-09-19T22:01:19;98765.69;;;17.34;100.00
64362;BME280;50685;53.346;-6.296;2023-09-19T22:03:50;98783.59;;;17.33;100.00
64362;BME280;50685;53.346;-6.296;2023-09-19T22:06:24;98795.28;;;17.32;100.00
64362;BME280;50685;53.346;-6.296;2023-09-19T22:08:54;98810.59;;;17.30;100.00
64362;BME280;50685;53.346;-6.296;2023-09-19T22:11:29;98805.38;;;17.29;100.00
64362;BME280;50685;53.346;-6.296;2023-09-19T22:13:54;98813.19;;;17.32;100.00
64362;BME280;50685;53.346;-6.296;2023-09-19T22:16:19;98861.91;;;17.00;100.00
64362;BME280;50685;53.346;-6.296;2023-09-19T22:18:45;98834.91;;;16.64;100.00
64362;BME280;50685;53.346;-6.296;2023-09-19T22:21:14;98836.59;;;16.40;100.00
64362;BME280;50685;53.346;-6.296;2023-09-19T22:23:46;98880.84;;;16.18;100.00
64362;BME280;50685;53.346;-6.296;2023-09-19T22:26:21;98859.63;;;16.02;100.00
64362;BME280;50685;53.346;-6.296;2023-09-19T22:31:55;98863.03;;;15.77;100.00
64362;BME280;50685;53.346;-6.296;2023-09-19T22:44:11;98869.38;;;15.61;100.00
64362;BME280;50685;53.346;-6.296;2023-09-19T23:02:54;98818.06;;;15.56;100.00
64362;BME280;50685;53.346;-6.296;2023-09-19T23:05:42;98802.88;;;15.56;100.00
64362;BME280;50685;53.346;-6.296;2023-09-19T23:13:33;98792.63;;;15.63;100.00
64362;BME280;50685;53.346;-6.296;2023-09-19T23:20:00;98777.91;;;15.70;100.00
64362;BME280;50685;53.346;-6.296;2023-09-19T23:22:29;98767.97;;;15.72;100.00
64362;BME280;50685;53.346;-6.296;2023-09-19T23:25:04;98777.59;;;15.75;100.00
64362;BME280;50685;53.346;-6.296;2023-09-19T23:27:42;98779.97;;;15.80;100.00
64362;BME280;50685;53.346;-6.296;2023-09-19T23:30:14;98767.19;;;15.85;100.00
64362;BME280;50685;53.346;-6.296;2023-09-19T23:32:50;98793.38;;;15.93;100.00